Terminal Aerodrome Forecast
Issued by NWS

Home | Current Version | Previous Version | Text Only | Print | Product List | Glossary On
Versions: 1 2 3 4 5 6 7 8 9 10 11 12 13
000
FTUS46 KLOX 020500
TAFPRB
TAF
KPRB 020520Z 0206/0306 VRB03KT P6SM SKC
     FM022000 20012KT P6SM SKC
     FM022300 21018G28KT P6SM SKC
     FM030400 22012KT P6SM SKC=

USA.gov is the U.S. government's official web portal to all federal, state and local government web resources and services.